Time;durP1;ratioP1;P1;durP2;ratioP2;P2;SDS_P1;SDS_P2;PMS_P1;PMS_P2;Temp;Humidity;BMP_temperature;BMP_pressure;BME280_temperature;BME280_humidity;BME280_pressure;Samples;Min_cycle;Max_cycle;Signal;HPM_P1;HPM_P2
2022/09/05 00:01:53;;;;;;;5.05;2.67;;;;;;;20.37;66.78;100283.75;5048528;28;20048;-85
2022/09/05 00:04:31;;;;;;;4.65;2.30;;;;;;;19.95;66.17;100220.47;5049576;28;20025;-85
2022/09/05 00:07:15;;;;;;;5.15;2.72;;;;;;;20.05;67.06;100266.47;5053490;28;20053;-84
2022/09/05 00:09:49;;;;;;;4.25;2.90;;;;;;;20.07;67.81;100285.16;5050534;28;20033;-84
2022/09/05 00:12:15;;;;;;;3.92;2.40;;;;;;;19.59;68.17;100239.03;5050860;28;20446;-84
2022/09/05 00:15:09;;;;;;;5.68;2.80;;;;;;;19.56;69.31;100257.91;5053577;28;20525;-84
2022/09/05 00:18:03;;;;;;;3.63;2.07;;;;;;;19.81;69.12;100301.41;5047860;28;20106;-84
2022/09/05 00:20:58;;;;;;;1.83;1.42;;;;;;;19.93;69.17;100305.38;5058878;28;20051;-85
2022/09/05 00:23:34;;;;;;;;;;;;;;;19.92;69.38;100308.13;5049037;28;20048;-85
2022/09/05 00:26:11;;;;;;;3.20;1.95;;;;;;;19.47;69.82;100280.56;5063156;28;19992;-84
2022/09/05 00:28:47;;;;;;;3.42;1.70;;;;;;;19.80;69.99;100329.13;5059406;28;20040;-84
2022/09/05 00:31:25;;;;;;;3.03;1.80;;;;;;;19.56;69.46;100290.00;5048991;28;20415;-85
2022/09/05 00:34:28;;;;;;;4.05;2.00;;;;;;;19.94;69.64;100316.94;5060572;28;20037;-85
2022/09/05 00:36:54;;;;;;;3.60;1.83;;;;;;;19.63;69.95;100275.41;5062452;28;20560;-85
2022/09/05 00:39:36;;;;;;;5.28;2.47;;;;;;;19.47;70.43;100300.16;5062479;28;20059;-86
2022/09/05 00:42:14;;;;;;;3.33;1.80;;;;;;;19.05;71.11;100226.16;5056351;28;20513;-85
2022/09/05 00:44:54;;;;;;;3.33;2.22;;;;;;;19.42;70.80;100272.75;5048095;28;20041;-85
2022/09/05 00:47:27;;;;;;;2.90;1.83;;;;;;;19.80;70.66;100318.44;5050733;28;20041;-84
2022/09/05 00:50:01;;;;;;;3.78;2.13;;;;;;;19.33;70.86;100251.72;5062171;28;20085;-84
2022/09/05 00:52:38;;;;;;;3.85;2.03;;;;;;;19.26;71.13;100258.25;5049587;28;20106;-84
2022/09/05 00:55:13;;;;;;;2.85;1.50;;;;;;;19.68;71.14;100311.75;5048633;28;20078;-86
2022/09/05 00:57:57;;;;;;;3.05;2.10;;;;;;;19.45;71.21;100261.03;5046972;28;20041;-85
2022/09/05 01:00:33;;;;;;;3.57;1.70;;;;;;;19.32;71.00;100212.53;5056161;28;20400;-84
2022/09/05 01:03:11;;;;;;;3.95;2.58;;;;;;;19.81;71.21;100293.38;5052141;28;20355;-85
2022/09/05 01:06:13;;;;;;;3.40;1.85;;;;;;;19.91;71.08;100296.53;5061276;28;20068;-84
2022/09/05 01:08:48;;;;;;;5.13;3.08;;;;;;;20.01;70.70;100308.56;5057674;28;20036;-84
2022/09/05 01:11:34;;;;;;;5.03;2.05;;;;;;;20.07;70.33;100317.28;5051598;28;20033;-85
2022/09/05 01:14:16;;;;;;;8.18;2.47;;;;;;;19.90;70.28;100283.22;5061547;28;20039;-85
2022/09/05 01:17:31;;;;;;;2.90;1.50;;;;;;;19.36;70.54;100230.19;5052247;28;20048;-85
2022/09/05 01:20:45;;;;;;;4.45;2.53;;;;;;;19.49;70.59;100258.16;5013652;28;20045;-85
2022/09/05 01:23:52;;;;;;;3.92;2.60;;;;;;;19.87;70.96;100300.28;5048659;28;20446;-84
2022/09/05 01:26:26;;;;;;;4.13;2.70;;;;;;;19.67;71.82;100304.66;5004869;28;20033;-84
2022/09/05 01:29:17;;;;;;;5.35;2.30;;;;;;;19.55;70.77;100251.66;5047974;28;20140;-84
2022/09/05 01:32:02;;;;;;;3.83;2.58;;;;;;;19.87;70.96;100304.78;5048407;28;20047;-84
2022/09/05 01:34:49;;;;;;;5.60;2.97;;;;;;;19.49;70.95;100266.19;5049284;28;20732;-85
2022/09/05 01:37:42;;;;;;;3.92;2.20;;;;;;;19.23;71.11;100218.28;5046523;28;20806;-85
2022/09/05 01:40:37;;;;;;;5.07;2.78;;;;;;;19.89;70.81;100300.22;5055326;28;20041;-85
2022/09/05 01:43:47;;;;;;;3.83;2.50;;;;;;;19.79;71.35;100303.28;5045605;28;20056;-85
2022/09/05 01:46:34;;;;;;;3.45;2.15;;;;;;;19.87;71.46;100304.78;5021009;28;20049;-85
2022/09/05 01:49:06;;;;;;;5.82;2.15;;;;;;;19.88;71.13;100301.16;5060461;28;20037;-85
2022/09/05 01:51:55;;;;;;;3.35;2.70;;;;;;;19.82;71.64;100304.97;5061139;28;20533;-85
2022/09/05 01:54:36;;;;;;;4.00;2.22;;;;;;;19.70;71.19;100281.41;5052362;28;20154;-85
2022/09/05 01:57:28;;;;;;;5.70;2.97;;;;;;;19.43;70.99;100220.97;5058831;28;20036;-84
2022/09/05 02:00:17;;;;;;;6.05;3.22;;;;;;;19.76;70.98;100281.97;5054477;28;20090;-85
2022/09/05 02:02:42;;;;;;;4.75;2.67;;;;;;;19.83;71.49;100317.41;5040101;28;20041;-84
2022/09/05 02:05:25;;;;;;;5.05;2.50;;;;;;;19.18;71.93;100228.31;5053359;28;21754;-84
2022/09/05 02:08:03;;;;;;;3.42;2.15;;;;;;;19.76;72.15;100307.88;5070325;28;20048;-84
2022/09/05 02:10:44;;;;;;;3.45;2.25;;;;;;;19.79;71.80;100303.28;5062808;28;20029;-86
2022/09/05 02:13:22;;;;;;;4.55;2.90;;;;;;;19.37;72.34;100248.00;5060470;28;20024;-85
2022/09/05 02:16:19;;;;;;;4.88;2.65;;;;;;;19.52;73.16;100291.06;5059548;28;20041;-84
2022/09/05 02:19:16;;;;;;;6.65;2.75;;;;;;;19.03;73.07;100229.81;5051024;28;20097;-85
2022/09/05 02:21:44;;;;;;;3.97;2.25;;;;;;;19.44;73.23;100292.25;5046959;28;20031;-85
2022/09/05 02:24:22;;;;;;;4.28;2.75;;;;;;;19.54;73.08;100299.91;5044622;28;20037;-84
2022/09/05 02:27:18;;;;;;;3.85;2.60;;;;;;;19.32;73.17;100263.34;5051388;28;20450;-85
2022/09/05 02:30:08;;;;;;;3.22;1.73;;;;;;;19.84;72.17;100298.59;5049164;28;20037;-85
2022/09/05 02:32:51;;;;;;;4.32;2.70;;;;;;;19.89;71.96;100300.22;5051457;28;20048;-84
2022/09/05 02:35:26;;;;;;;4.80;3.03;;;;;;;19.71;72.53;100307.19;5059947;28;20066;-84
2022/09/05 02:38:07;;;;;;;5.80;2.50;;;;;;;19.82;72.56;100308.53;5053703;28;20098;-84
2022/09/05 02:40:36;;;;;;;4.60;2.60;;;;;;;19.79;72.67;100314.00;5057501;28;20040;-83
2022/09/05 02:43:09;;;;;;;5.07;2.97;;;;;;;19.32;73.04;100261.56;5059253;28;20036;-84
2022/09/05 02:45:40;;;;;;;4.65;2.65;;;;;;;19.88;72.66;100311.84;5060904;28;20051;-84
2022/09/05 02:48:19;;;;;;;5.45;2.55;;;;;;;19.54;72.76;100289.19;5056663;28;20033;-84
2022/09/05 02:51:00;;;;;;;5.88;2.72;;;;;;;19.56;72.66;100287.34;5056278;28;20071;-85
2022/09/05 02:53:27;;;;;;;3.13;2.05;;;;;;;19.34;72.68;100234.75;5048370;28;20040;-85
2022/09/05 02:56:05;;;;;;;4.22;2.38;;;;;;;19.95;72.20;100329.41;5047593;28;20047;-85
2022/09/05 02:58:46;;;;;;;5.70;2.95;;;;;;;19.90;72.72;100320.72;5060925;28;20063;-84
2022/09/05 03:01:27;;;;;;;5.65;2.95;;;;;;;19.33;72.83;100243.69;5050590;28;20111;-84
2022/09/05 03:04:15;;;;;;;4.95;2.90;;;;;;;19.94;72.56;100312.47;5058779;28;20094;-85
2022/09/05 03:06:47;;;;;;;3.60;2.22;;;;;;;20.04;72.21;100323.63;5051224;28;20036;-85
2022/09/05 03:09:31;;;;;;;3.80;2.38;;;;;;;19.99;72.54;100320.31;5055831;28;20553;-86
2022/09/05 03:12:08;;;;;;;5.45;2.38;;;;;;;20.00;72.53;100327.38;5049123;28;20036;-85
2022/09/05 03:15:01;;;;;;;8.90;2.38;;;;;;;19.46;72.52;100247.59;5046919;28;20032;-86
2022/09/05 03:17:50;;;;;;;5.13;2.53;;;;;;;19.83;72.55;100320.97;5047442;28;20163;-86
2022/09/05 03:20:41;;;;;;;7.18;3.00;;;;;;;19.63;73.13;100288.78;5054853;28;20423;-87
2022/09/05 03:23:27;;;;;;;4.82;2.92;;;;;;;19.26;73.12;100237.75;5046598;28;20044;-87
2022/09/05 03:25:55;;;;;;;5.68;3.20;;;;;;;19.88;72.59;100334.16;5057047;28;20082;-85
2022/09/05 03:28:54;;;;;;;5.75;3.22;;;;;;;19.94;72.51;100333.00;5060471;28;20032;-85
2022/09/05 03:31:34;;;;;;;8.23;3.35;;;;;;;19.89;71.86;100335.88;5059695;28;20047;-85
2022/09/05 03:34:15;;;;;;;5.15;3.10;;;;;;;19.89;72.31;100329.66;5055022;28;20036;-85
2022/09/05 03:37:20;;;;;;;4.72;2.88;;;;;;;19.96;71.88;100332.00;5047515;28;20059;-85
2022/09/05 03:40:10;;;;;;;5.82;3.45;;;;;;;19.92;71.95;100349.13;5053067;28;20028;-86
2022/09/05 03:42:57;;;;;;;5.72;3.78;;;;;;;19.93;71.92;100331.28;5054173;28;20041;-85
2022/09/05 03:45:41;;;;;;;7.22;3.60;;;;;;;19.99;71.42;100347.06;5049085;28;21236;-86
2022/09/05 03:48:31;;;;;;;7.10;3.35;;;;;;;19.63;70.66;100264.72;5050351;28;20043;-86
2022/09/05 03:50:56;;;;;;;6.40;3.75;;;;;;;20.05;71.22;100346.81;5055944;28;20029;-86
2022/09/05 03:53:33;;;;;;;8.52;3.58;;;;;;;19.85;71.50;100353.03;5058817;28;20388;-86
2022/09/05 03:56:13;;;;;;;7.97;4.32;;;;;;;19.46;71.67;100278.81;5063166;28;20028;-86
2022/09/05 03:58:51;;;;;;;6.13;3.17;;;;;;;19.67;70.98;100325.19;5052934;28;20117;-87
2022/09/05 04:01:46;;;;;;;7.20;4.13;;;;;;;19.79;71.63;100353.28;5058938;28;20056;-87
2022/09/05 04:04:37;;;;;;;6.78;3.05;;;;;;;19.30;71.23;100260.75;5056380;28;20027;-86
2022/09/05 04:07:07;;;;;;;4.45;2.70;;;;;;;19.61;71.13;100310.25;5053478;28;20570;-87
2022/09/05 04:09:53;;;;;;;4.97;3.10;;;;;;;19.69;71.53;100326.00;5059054;28;20058;-86
2022/09/05 04:12:25;;;;;;;8.50;4.65;;;;;;;19.90;71.52;100363.53;5048529;28;20044;-86
2022/09/05 04:15:05;;;;;;;4.53;2.80;;;;;;;19.29;71.98;100306.28;5055281;28;20032;-86
2022/09/05 04:17:39;;;;;;;5.65;3.17;;;;;;;19.71;71.05;100360.72;5055505;28;20097;-86
2022/09/05 04:20:16;;;;;;;7.20;3.53;;;;;;;19.73;70.44;100329.44;5054759;28;20067;-87
2022/09/05 04:22:47;;;;;;;5.72;3.33;;;;;;;19.97;69.49;100379.28;5052641;28;20318;-87
2022/09/05 04:25:13;;;;;;;5.43;2.97;;;;;;;19.94;69.55;100375.84;5055644;28;20075;-87
2022/09/05 04:27:47;;;;;;;5.15;3.30;;;;;;;20.12;69.22;100383.06;5049138;28;20033;-84
2022/09/05 04:30:41;;;;;;;4.75;3.05;;;;;;;20.05;69.13;100386.97;5054003;28;20044;-85
2022/09/05 04:33:18;;;;;;;4.75;2.40;;;;;;;20.04;68.88;100377.19;5053948;28;20045;-85
2022/09/05 04:36:02;;;;;;;6.07;3.30;;;;;;;20.25;68.46;100390.56;5055508;28;20174;-85
2022/09/05 04:38:37;;;;;;;4.47;3.20;;;;;;;19.64;68.49;100288.72;5055304;28;20029;-84
2022/09/05 04:41:13;;;;;;;5.03;2.38;;;;;;;20.03;67.83;100365.63;5049675;28;20068;-85
2022/09/05 04:43:46;;;;;;;3.50;2.05;;;;;;;19.80;67.14;100310.41;5052260;28;20120;-84
2022/09/05 04:46:35;;;;;;;3.22;1.75;;;;;;;20.52;66.60;100400.06;5049967;28;20467;-85
2022/09/05 04:49:03;;;;;;;4.20;2.05;;;;;;;20.51;65.37;100397.44;5065014;28;20032;-84
2022/09/05 04:51:35;;;;;;;3.35;1.98;;;;;;;20.45;65.01;100401.28;5056126;28;20579;-83
2022/09/05 04:54:24;;;;;;;4.43;2.30;;;;;;;20.24;63.94;100321.88;5067646;28;20067;-84
2022/09/05 04:57:13;;;;;;;3.78;2.03;;;;;;;20.75;63.37;100423.16;5052300;28;20098;-83
2022/09/05 05:00:03;;;;;;;3.03;1.73;;;;;;;20.88;62.12;100385.97;5069348;28;20048;-84
2022/09/05 05:02:49;;;;;;;3.05;1.92;;;;;;;20.88;62.27;100359.13;5057146;28;20110;-84
2022/09/05 05:05:23;;;;;;;4.15;2.42;;;;;;;20.91;63.67;100388.50;5061571;28;20114;-87
2022/09/05 05:08:00;;;;;;;2.53;1.55;;;;;;;21.03;62.98;100410.31;5060680;28;20032;-85
2022/09/05 05:10:46;;;;;;;5.03;2.75;;;;;;;20.20;62.54;100342.56;5081697;28;20048;-86
2022/09/05 05:13:22;;;;;;;;;;;;;;;20.56;62.47;100412.38;5067012;28;20128;-87
2022/09/05 05:15:56;;;;;;;4.25;1.77;;;;;;;20.27;62.53;100364.59;5067647;28;19912;-87
2022/09/05 05:18:27;;;;;;;3.05;2.00;;;;;;;20.13;61.31;100351.81;5065815;28;20045;-85
2022/09/05 05:21:04;;;;;;;6.43;2.47;;;;;;;20.53;61.50;100436.66;5064025;28;20041;-86
2022/09/05 05:23:38;;;;;;;3.50;1.73;;;;;;;20.79;62.51;100434.63;5064883;28;20119;-86
2022/09/05 05:26:08;;;;;;;5.78;1.52;;;;;;;20.47;61.01;100399.41;5065934;28;20074;-86
2022/09/05 05:29:00;;;;;;;2.72;1.55;;;;;;;20.48;61.42;100378.81;5065780;28;20040;-85
2022/09/05 05:31:37;;;;;;;5.65;2.10;;;;;;;20.39;60.75;100350.66;5048829;28;20036;-89
2022/09/05 05:34:16;;;;;;;4.10;2.20;;;;;;;20.44;61.86;100401.34;5046075;28;20048;-86
2022/09/05 05:36:50;;;;;;;2.97;1.63;;;;;;;20.80;61.52;100371.16;5046186;28;20040;-88
2022/09/05 05:39:28;;;;;;;3.25;1.58;;;;;;;20.65;61.05;100378.09;5046870;28;20473;-83
2022/09/05 05:41:55;;;;;;;2.72;1.98;;;;;;;20.37;60.63;100329.28;5056184;28;20040;-85
2022/09/05 05:44:32;;;;;;;3.03;1.88;;;;;;;20.66;61.28;100355.72;5058817;28;20421;-84
2022/09/05 05:47:03;;;;;;;6.05;2.25;;;;;;;20.77;60.54;100390.94;5056070;28;20462;-86
2022/09/05 05:49:55;;;;;;;2.72;1.95;;;;;;;20.90;60.16;100367.97;5054963;28;20056;-85
2022/09/05 05:52:21;;;;;;;5.57;1.92;;;;;;;21.59;59.99;100438.06;5048307;28;20678;-86
2022/09/05 05:55:37;;;;;;;3.80;2.00;;;;;;;21.60;59.93;100446.03;5065819;28;20033;-85
2022/09/05 05:58:50;;;;;;;3.15;1.80;;;;;;;21.74;58.14;100444.50;5053370;28;20071;-84
2022/09/05 06:01:37;;;;;;;3.45;2.28;;;;;;;21.43;58.91;100451.31;5004718;28;20083;-84
2022/09/05 06:04:33;;;;;;;9.00;2.05;;;;;;;21.90;58.57;100464.25;5045197;28;20055;-86
2022/09/05 06:07:05;;;;;;;7.75;2.55;;;;;;;22.06;57.57;100466.16;5061506;28;20491;-85
2022/09/05 06:09:54;;;;;;;2.80;1.63;;;;;;;21.85;57.22;100452.88;5063896;28;20418;-86
2022/09/05 06:12:41;;;;;;;2.13;1.65;;;;;;;21.99;57.17;100453.03;5066992;28;20113;-85
2022/09/05 06:15:37;;;;;;;4.13;1.67;;;;;;;21.95;57.64;100459.53;5065972;28;20119;-87
2022/09/05 06:18:44;;;;;;;4.97;2.00;;;;;;;22.20;57.40;100455.59;5066927;28;20053;-86
2022/09/05 06:21:41;;;;;;;2.70;1.98;;;;;;;22.51;56.63;100467.47;5062130;28;20051;-86
2022/09/05 06:24:28;;;;;;;3.10;1.77;;;;;;;22.37;55.89;100470.00;5066639;28;20039;-86
2022/09/05 06:26:57;;;;;;;2.70;1.52;;;;;;;22.58;54.62;100481.44;5064976;28;20487;-84
2022/09/05 06:29:54;;;;;;;3.35;1.77;;;;;;;22.90;55.06;100468.97;5065784;28;20168;-84
2022/09/05 06:32:47;;;;;;;5.82;1.90;;;;;;;22.95;53.88;100472.28;5065916;28;20086;-84
2022/09/05 06:35:37;;;;;;;4.10;2.10;;;;;;;22.95;52.44;100472.28;5064248;28;20036;-87
2022/09/05 06:38:30;;;;;;;3.30;1.70;;;;;;;23.29;52.65;100469.59;5066605;28;20115;-85
2022/09/05 06:41:18;;;;;;;1.95;1.35;;;;;;;23.56;49.96;100465.34;5066827;28;20090;-89
2022/09/05 06:44:07;;;;;;;3.92;2.08;;;;;;;23.92;49.78;100471.44;5066929;28;20036;-90
2022/09/05 06:46:39;;;;;;;3.00;1.60;;;;;;;23.93;49.13;100420.16;5066456;28;20033;-83
2022/09/05 06:49:39;;;;;;;3.08;1.80;;;;;;;24.51;48.49;100470.66;5066184;28;20058;-85
2022/09/05 06:52:42;;;;;;;4.72;1.38;;;;;;;24.18;47.60;100463.66;5066438;28;20032;-84
2022/09/05 06:55:25;;;;;;;2.97;1.38;;;;;;;24.02;48.34;100483.41;5065753;28;20038;-85
2022/09/05 06:58:12;;;;;;;3.33;1.70;;;;;;;24.01;50.26;100470.03;5081844;28;20508;-86
2022/09/05 07:00:56;;;;;;;7.53;1.73;;;;;;;24.05;49.60;100441.94;5063250;28;20127;-84
2022/09/05 07:03:40;;;;;;;4.63;1.52;;;;;;;24.41;49.21;100476.59;5065694;28;20502;-87
2022/09/05 07:06:10;;;;;;;3.03;1.58;;;;;;;24.67;47.11;100466.94;5066295;28;20037;-84
2022/09/05 07:09:01;;;;;;;2.05;1.40;;;;;;;24.45;47.31;100421.53;5065921;28;20110;-83
2022/09/05 07:11:50;;;;;;;3.85;2.05;;;;;;;24.37;47.14;100426.50;5063628;28;20036;-85
2022/09/05 07:14:26;;;;;;;2.35;1.42;;;;;;;25.14;47.08;100493.75;5064250;28;20137;-84
2022/09/05 07:17:07;;;;;;;2.58;1.42;;;;;;;25.63;45.44;100452.81;5069653;28;20048;-83
2022/09/05 07:19:54;;;;;;;3.13;1.58;;;;;;;26.07;44.25;100489.56;5065905;28;20080;-84
2022/09/05 07:22:44;;;;;;;2.53;1.65;;;;;;;25.95;45.75;100430.88;5070382;28;20033;-84
2022/09/05 07:25:14;;;;;;;2.20;1.50;;;;;;;26.53;42.63;100426.00;5063970;28;20116;-82
2022/09/05 07:27:51;;;;;;;1.92;1.20;;;;;;;26.80;42.93;100417.81;5068715;28;20035;-81
2022/09/05 07:30:18;;;;;;;2.25;1.33;;;;;;;26.90;42.33;100415.31;5070329;28;20059;-86
2022/09/05 07:32:48;;;;;;;2.15;1.52;;;;;;;26.89;40.64;100416.25;5070148;28;20040;-81
2022/09/05 07:35:29;;;;;;;2.95;1.80;;;;;;;26.77;41.55;100398.19;5069851;28;20059;-82
2022/09/05 07:38:27;;;;;;;1.45;1.20;;;;;;;27.28;43.45;100471.22;5070510;28;20093;-83
2022/09/05 07:41:22;;;;;;;13.75;1.58;;;;;;;26.84;41.50;100402.22;5036244;28;20048;-83
2022/09/05 07:43:54;;;;;;;1.95;1.17;;;;;;;26.86;41.13;100429.16;5068911;28;20146;-85
2022/09/05 07:46:26;;;;;;;2.17;1.35;;;;;;;26.66;41.89;100419.75;5069479;28;20033;-82
2022/09/05 07:49:02;;;;;;;2.00;1.33;;;;;;;26.66;40.55;100395.41;5069297;28;20051;-83
2022/09/05 07:51:34;;;;;;;2.60;1.42;;;;;;;26.22;41.75;100430.84;5069544;28;20040;-82
2022/09/05 07:54:24;;;;;;;2.38;1.40;;;;;;;26.07;42.02;100419.28;5069434;28;20072;-82
2022/09/05 07:57:02;;;;;;;1.80;1.50;;;;;;;26.30;43.87;100419.50;5069581;28;20036;-82
2022/09/05 07:59:31;;;;;;;2.80;1.35;;;;;;;26.05;42.62;100391.47;5069405;28;20039;-81
2022/09/05 08:01:59;;;;;;;2.70;1.95;;;;;;;26.45;42.47;100409.47;5069304;28;20040;-82
2022/09/05 08:04:26;;;;;;;1.42;1.15;;;;;;;27.00;43.24;100464.22;5069265;28;20089;-81
2022/09/05 08:06:55;;;;;;;3.08;1.83;;;;;;;27.09;42.85;100413.97;5068030;28;20029;-83
2022/09/05 08:09:26;;;;;;;4.05;1.88;;;;;;;26.75;40.89;100409.13;5069327;28;20033;-81
2022/09/05 08:11:56;;;;;;;3.63;1.83;;;;;;;27.32;39.24;100431.25;5069240;28;20036;-82
2022/09/05 08:14:25;;;;;;;3.70;1.63;;;;;;;27.87;38.57;100459.66;5069220;28;20060;-81
2022/09/05 08:16:50;;;;;;;1.85;1.42;;;;;;;28.10;39.15;100421.84;5067476;28;20079;-86
2022/09/05 08:19:39;;;;;;;1.88;1.35;;;;;;;28.03;38.82;100426.00;5069723;28;20032;-82
2022/09/05 08:22:10;;;;;;;5.13;4.05;;;;;;;27.09;38.85;100395.88;5069088;28;20035;-82
2022/09/05 08:24:46;;;;;;;7.53;6.32;;;;;;;26.43;40.16;100387.94;5068843;28;20121;-82
2022/09/05 08:27:23;;;;;;;6.53;5.22;;;;;;;26.73;40.99;100391.31;5067924;28;20029;-86
2022/09/05 08:29:56;;;;;;;3.55;2.58;;;;;;;25.94;42.34;100410.22;5068872;28;20182;-81
2022/09/05 08:32:27;;;;;;;3.50;2.40;;;;;;;26.54;40.93;100451.22;5068861;28;20479;-88
2022/09/05 08:35:01;;;;;;;7.88;6.07;;;;;;;26.64;41.88;100398.19;5068413;28;20039;-84
2022/09/05 08:37:29;;;;;;;6.65;5.75;;;;;;;26.38;43.20;100402.75;5068530;28;20383;-83
2022/09/05 08:40:05;;;;;;;5.75;3.10;;;;;;;26.46;41.63;100405.75;5068637;28;20059;-84
2022/09/05 08:42:55;;;;;;;4.75;2.60;;;;;;;26.62;41.22;100454.25;5068423;28;20036;-85
2022/09/05 08:45:34;;;;;;;3.42;2.20;;;;;;;26.08;41.22;100345.28;5068525;28;20060;-85
2022/09/05 08:48:25;;;;;;;8.02;6.78;;;;;;;26.51;41.09;100403.63;5068324;28;20113;-83
2022/09/05 08:51:12;;;;;;;5.80;3.78;;;;;;;27.02;40.67;100437.03;5068378;28;20113;-83
2022/09/05 08:53:58;;;;;;;5.90;3.60;;;;;;;27.03;40.04;100434.22;5068169;28;20043;-84
2022/09/05 08:56:36;;;;;;;5.15;2.58;;;;;;;26.33;40.73;100350.81;5068265;28;20046;-83
2022/09/05 08:59:20;;;;;;;4.10;2.60;;;;;;;27.12;40.72;100438.09;5068446;28;20029;-83
2022/09/05 09:02:23;;;;;;;4.37;2.83;;;;;;;27.32;41.01;100432.13;5068164;28;20032;-84
2022/09/05 09:05:17;;;;;;;3.92;2.53;;;;;;;26.93;39.59;100346.56;5067110;28;20094;-82
2022/09/05 09:08:09;;;;;;;5.07;2.40;;;;;;;27.01;40.41;100367.66;5068233;28;20020;-85
2022/09/05 09:10:58;;;;;;;2.88;2.15;;;;;;;26.59;43.14;100344.41;5067996;28;20044;-86
2022/09/05 09:13:35;;;;;;;4.78;2.25;;;;;;;27.04;41.18;100360.16;5059534;28;20042;-86
2022/09/05 09:16:13;;;;;;;3.13;2.15;;;;;;;27.03;40.08;100379.22;5064162;28;20593;-83
2022/09/05 09:18:48;;;;;;;3.03;2.10;;;;;;;27.46;39.48;100417.56;5046997;28;20056;-82
2022/09/05 09:21:27;;;;;;;3.28;2.35;;;;;;;27.38;39.11;100422.69;5065444;28;20031;-83
2022/09/05 09:24:35;;;;;;;2.70;1.73;;;;;;;26.71;40.46;100412.16;5066171;28;20087;-84
2022/09/05 09:27:08;;;;;;;3.20;1.83;;;;;;;26.48;42.46;100408.34;5062570;28;20033;-81
2022/09/05 09:29:38;;;;;;;3.38;2.20;;;;;;;25.88;42.98;100354.75;5049834;28;20573;-82
2022/09/05 09:32:10;;;;;;;3.97;2.58;;;;;;;26.30;43.11;100405.13;5067552;28;20060;-81
2022/09/05 09:34:48;;;;;;;4.47;1.92;;;;;;;26.20;43.25;100373.31;5067381;28;20028;-87
2022/09/05 09:37:35;;;;;;;2.05;1.35;;;;;;;26.20;43.26;100416.56;5067459;28;20495;-82
2022/09/05 09:40:35;;;;;;;3.65;1.92;;;;;;;25.32;43.93;100416.16;5067768;28;20516;-84
2022/09/05 09:43:19;;;;;;;2.42;1.70;;;;;;;25.42;44.50;100425.38;5066217;28;20039;-82
2022/09/05 09:46:10;;;;;;;2.95;1.80;;;;;;;25.04;44.31;100331.56;5063008;28;20817;-83
2022/09/05 09:48:51;;;;;;;3.53;1.83;;;;;;;25.49;46.20;100410.50;5063327;28;20036;-83
2022/09/05 09:51:38;;;;;;;3.55;2.08;;;;;;;25.94;45.15;100420.19;5050493;28;20119;-84
2022/09/05 09:54:19;;;;;;;2.72;2.05;;;;;;;25.47;43.58;100363.84;5065672;28;20040;-84
2022/09/05 09:56:54;;;;;;;2.72;1.58;;;;;;;26.03;41.86;100406.06;5067170;28;20426;-83
2022/09/05 09:59:22;;;;;;;2.90;1.87;;;;;;;26.22;43.53;100408.34;5065714;28;20487;-83
2022/09/05 10:02:14;;;;;;;2.83;2.03;;;;;;;26.69;41.07;100415.00;5065061;28;20725;-84
2022/09/05 10:05:11;;;;;;;4.63;2.40;;;;;;;26.63;40.90;100410.88;5065649;28;20040;-84
2022/09/05 10:07:52;;;;;;;2.70;1.50;;;;;;;26.38;39.30;100413.56;5066092;28;20032;-84
2022/09/05 10:10:32;;;;;;;3.05;1.70;;;;;;;26.73;37.86;100415.66;5066294;28;20032;-85
2022/09/05 10:13:16;;;;;;;5.18;1.88;;;;;;;26.98;37.82;100412.88;5082208;28;20045;-86
2022/09/05 10:16:04;;;;;;;2.05;1.40;;;;;;;26.80;37.91;100384.44;5066518;28;20059;-86
2022/09/05 10:18:43;;;;;;;2.13;1.52;;;;;;;26.70;38.44;100416.72;5066662;28;20601;-83
2022/09/05 10:21:23;;;;;;;2.20;1.50;;;;;;;26.72;41.35;100409.34;5065498;28;20040;-86
2022/09/05 10:23:54;;;;;;;2.85;1.80;;;;;;;26.67;38.93;100413.38;5065198;28;20124;-84
2022/09/05 10:26:57;;;;;;;3.53;1.65;;;;;;;26.91;38.17;100406.22;5065893;28;20141;-85
2022/09/05 10:29:35;;;;;;;3.88;2.20;;;;;;;27.18;39.13;100405.16;5080621;28;20041;-84
2022/09/05 10:32:07;;;;;;;4.18;1.73;;;;;;;26.32;37.51;100370.72;5059412;28;20048;-83
2022/09/05 10:34:59;;;;;;;2.03;1.08;;;;;;;26.88;37.71;100406.44;5065983;28;20052;-84
2022/09/05 10:38:02;;;;;;;3.50;1.40;;;;;;;26.70;38.43;100392.38;5067000;28;20132;-84
2022/09/05 10:40:32;;;;;;;2.08;1.20;;;;;;;26.46;37.86;100327.31;5066463;28;20027;-82
2022/09/05 10:43:12;;;;;;;2.00;1.38;;;;;;;26.54;38.80;100338.47;5045236;28;20044;-82
2022/09/05 10:45:56;;;;;;;1.10;0.88;;;;;;;26.24;38.35;100296.44;5063187;28;20040;-84
2022/09/05 10:48:34;;;;;;;3.50;1.88;;;;;;;26.53;38.68;100342.16;5066700;28;20062;-83
2022/09/05 10:51:08;;;;;;;2.35;1.45;;;;;;;26.69;37.63;100346.50;5067833;28;20040;-86
2022/09/05 10:53:52;;;;;;;2.08;1.27;;;;;;;26.97;37.68;100372.41;5067685;28;20035;-84
2022/09/05 10:56:30;;;;;;;3.33;1.52;;;;;;;27.09;36.75;100357.09;5070622;28;20396;-85
2022/09/05 10:59:03;;;;;;;3.40;2.13;;;;;;;26.64;36.61;100335.97;5069259;28;20051;-86
2022/09/05 11:02:04;;;;;;;1.55;0.93;;;;;;;26.87;36.30;100369.50;5071108;28;20529;-90
2022/09/05 11:04:48;;;;;;;1.92;1.08;;;;;;;26.73;37.68;100367.81;5068709;28;20123;-88
2022/09/05 11:07:20;;;;;;;3.33;1.90;;;;;;;26.69;36.83;100330.25;5067783;28;20503;-86
2022/09/05 11:10:06;;;;;;;4.35;3.05;;;;;;;26.49;36.73;100324.41;5062385;28;20105;-87
2022/09/05 11:12:40;;;;;;;1.73;1.30;;;;;;;26.51;37.14;100359.44;5070098;28;20024;-84
2022/09/05 11:15:22;;;;;;;1.60;1.00;;;;;;;26.23;41.04;100315.47;5069481;28;20059;-82
2022/09/05 11:17:50;;;;;;;1.70;1.08;;;;;;;26.79;38.13;100358.38;5068801;28;20086;-85
2022/09/05 11:20:44;;;;;;;1.58;1.23;;;;;;;27.06;37.05;100343.81;5069192;28;20033;-85
2022/09/05 11:23:36;;;;;;;2.63;1.40;;;;;;;26.93;36.85;100295.13;5069959;28;20024;-86
2022/09/05 11:26:13;;;;;;;1.63;1.20;;;;;;;26.67;35.53;100289.78;5069585;28;20041;-87
2022/09/05 11:28:53;;;;;;;1.52;0.98;;;;;;;26.38;36.93;100292.72;5069692;28;21383;-87
2022/09/05 11:31:24;;;;;;;3.67;1.73;;;;;;;26.22;36.81;100257.81;5069239;28;20169;-85
2022/09/05 11:34:13;;;;;;;2.05;1.85;;;;;;;27.02;36.91;100332.34;5069422;28;20037;-85
2022/09/05 11:36:52;;;;;;;3.00;1.83;;;;;;;27.16;36.33;100280.72;5081280;28;20025;-85
2022/09/05 11:39:40;;;;;;;1.15;0.95;;;;;;;27.24;35.80;100284.72;5056480;28;20036;-85
2022/09/05 11:42:21;;;;;;;1.15;1.00;;;;;;;27.21;36.63;100252.44;5062536;28;20028;-87
2022/09/05 11:44:48;;;;;;;1.42;1.23;;;;;;;27.75;35.23;100316.94;5069061;28;20032;-87
2022/09/05 11:47:28;;;;;;;1.05;0.90;;;;;;;27.36;34.74;100318.13;5069567;28;20066;-87
2022/09/05 11:50:25;;;;;;;2.33;1.30;;;;;;;27.75;34.86;100310.69;5069791;28;20098;-86
2022/09/05 11:53:15;;;;;;;2.75;1.20;;;;;;;27.85;35.52;100303.53;5030355;28;20060;-88
2022/09/05 11:56:02;;;;;;;6.43;4.22;;;;;;;28.06;34.06;100301.03;5068382;28;20044;-91
2022/09/05 11:58:43;;;;;;;2.55;1.25;;;;;;;27.55;35.61;100291.38;5069485;28;20028;-89
2022/09/05 12:01:16;;;;;;;1.77;0.98;;;;;;;26.84;36.64;100214.63;5068865;28;20089;-86
2022/09/05 12:04:05;;;;;;;1.83;1.10;;;;;;;27.44;36.31;100229.06;5067016;28;20410;-85
2022/09/05 12:06:49;;;;;;;1.27;0.80;;;;;;;28.10;34.98;100242.88;5068892;28;20040;-86
2022/09/05 12:09:23;;;;;;;2.05;1.17;;;;;;;28.46;36.64;100286.16;5069028;28;20036;-89
2022/09/05 12:12:01;;;;;;;2.07;0.73;;;;;;;28.54;35.70;100280.94;5068018;28;20177;-88
2022/09/05 12:14:53;;;;;;;2.10;1.05;;;;;;;28.20;36.11;100292.66;5066933;28;20731;-87
2022/09/05 12:17:31;;;;;;;1.73;1.13;;;;;;;27.81;36.29;100283.94;5095148;23;20066;-84
2022/09/05 12:20:14;;;;;;;2.03;1.05;;;;;;;27.47;36.65;100196.31;4997291;28;20040;-84
2022/09/05 12:23:25;;;;;;;1.70;1.10;;;;;;;27.74;34.78;100230.34;5006687;28;20026;-86
2022/09/05 12:26:04;;;;;;;1.45;1.00;;;;;;;28.14;35.62;100268.75;4995870;28;20394;-85
2022/09/05 12:28:40;;;;;;;1.15;0.77;;;;;;;27.59;35.09;100232.41;4994956;28;20038;-84
2022/09/05 12:31:16;;;;;;;1.63;0.82;;;;;;;27.65;36.63;100205.72;4994104;28;20110;-85
2022/09/05 12:33:49;;;;;;;1.58;0.90;;;;;;;27.87;35.08;100175.03;4996007;28;20026;-84
2022/09/05 12:36:46;;;;;;;0.95;0.60;;;;;;;28.29;32.91;100263.09;4992402;28;20041;-83